Time;durP1;ratioP1;P1;durP2;ratioP2;P2;SDS_P1;SDS_P2;PMS_P1;PMS_P2;Temp;Humidity;BMP_temperature;BMP_pressure;BME280_temperature;BME280_humidity;BME280_pressure;Samples;Min_cycle;Max_cycle;Signal;HPM_P1;HPM_P2
2022/05/02 00:02:02;;;;;;;16.12;8.48;;;;;;;5.89;73.62;100621.14;1736439;81;21246;-70
2022/05/02 00:04:29;;;;;;;16.30;8.18;;;;;;;5.92;73.73;100622.41;1736538;82;21061;-71
2022/05/02 00:06:57;;;;;;;16.65;7.90;;;;;;;5.95;73.61;100622.39;1736265;82;21150;-71
2022/05/02 00:09:24;;;;;;;13.90;7.37;;;;;;;5.97;73.41;100618.02;1736342;82;21002;-71
2022/05/02 00:11:52;;;;;;;18.12;8.28;;;;;;;6.01;72.98;100618.88;1736454;82;21053;-70
2022/05/02 00:14:19;;;;;;;14.65;7.37;;;;;;;6.02;72.99;100617.52;1736157;82;21271;-71
2022/05/02 00:16:48;;;;;;;17.50;7.97;;;;;;;6.05;73.24;100617.52;1736012;82;21025;-70
2022/05/02 00:19:16;;;;;;;19.95;7.87;;;;;;;6.07;73.36;100611.83;1736278;82;21096;-70
2022/05/02 00:21:42;;;;;;;16.17;6.92;;;;;;;6.08;73.20;100617.47;1737075;82;21016;-71
2022/05/02 00:24:10;;;;;;;13.38;6.05;;;;;;;6.12;73.16;100617.01;1740459;82;21041;-71
2022/05/02 00:26:39;;;;;;;15.45;7.10;;;;;;;6.15;73.23;100614.80;1740681;82;21489;-70
2022/05/02 00:29:07;;;;;;;15.70;7.47;;;;;;;6.19;73.37;100615.16;1740400;82;21482;-71
2022/05/02 00:31:34;;;;;;;16.82;7.33;;;;;;;6.23;73.28;100614.25;1750568;81;21419;-73
2022/05/02 00:34:02;;;;;;;13.70;7.30;;;;;;;6.27;72.93;100615.95;1771032;81;21080;-70
2022/05/02 00:36:28;;;;;;;16.50;8.10;;;;;;;6.31;73.06;100617.66;1771405;81;21593;-71
2022/05/02 00:38:56;;;;;;;14.53;7.72;;;;;;;6.35;73.30;100622.39;1771250;81;22007;-71
2022/05/02 00:41:22;;;;;;;14.93;7.67;;;;;;;6.37;73.36;100618.02;1771508;81;21093;-71
2022/05/02 00:43:49;;;;;;;18.75;8.45;;;;;;;6.41;73.31;100621.88;1771177;80;21100;-69
2022/05/02 00:46:21;;;;;;;17.10;7.65;;;;;;;6.43;72.95;100622.73;1770913;80;21057;-70
2022/05/02 00:48:48;;;;;;;15.95;7.72;;;;;;;6.47;73.22;100623.13;1770824;81;21514;-70
2022/05/02 00:51:16;;;;;;;15.28;7.53;;;;;;;6.50;73.25;100620.46;1771122;80;21247;-72
2022/05/02 00:53:48;;;;;;;20.32;8.90;;;;;;;6.54;73.40;100621.75;1771147;81;21020;-69
2022/05/02 00:56:20;;;;;;;15.98;7.10;;;;;;;6.55;73.20;100620.85;1770985;80;21080;-71
2022/05/02 00:58:51;;;;;;;14.28;6.75;;;;;;;6.57;73.06;100623.01;1771253;80;20982;-73
2022/05/02 01:01:19;;;;;;;13.83;6.67;;;;;;;6.60;73.13;100621.66;1771425;81;21029;-71
2022/05/02 01:03:46;;;;;;;15.58;7.42;;;;;;;6.61;73.08;100616.86;1750051;81;21525;-71
2022/05/02 01:08:59;;;;;;;15.72;8.03;;;;;;;6.63;72.62;100618.56;1771372;81;21076;-71
2022/05/02 01:11:26;;;;;;;19.23;7.83;;;;;;;6.62;72.48;100619.44;1771345;80;21014;-72
2022/05/02 01:13:54;;;;;;;16.30;7.72;;;;;;;6.63;72.62;100615.09;1771452;81;21009;-71
2022/05/02 01:16:26;;;;;;;13.03;7.28;;;;;;;6.63;72.71;100614.64;1771373;80;22233;-70
2022/05/02 01:18:58;;;;;;;12.87;7.33;;;;;;;6.65;72.72;100617.25;1771645;81;21048;-70
2022/05/02 01:21:29;;;;;;;16.00;8.53;;;;;;;6.65;72.58;100612.02;1771225;80;20997;-70
2022/05/02 01:23:59;;;;;;;13.30;8.45;;;;;;;6.65;72.54;100609.40;1771282;81;21025;-71
2022/05/02 01:26:25;;;;;;;19.82;8.48;;;;;;;6.66;72.68;100611.97;1771678;80;21033;-71
2022/05/02 01:28:55;;;;;;;18.32;8.60;;;;;;;6.67;72.53;100610.22;1771076;81;21147;-70
2022/05/02 01:31:22;;;;;;;13.38;6.60;;;;;;;6.68;72.19;100607.59;1764084;81;21131;-71
2022/05/02 01:33:49;;;;;;;13.20;6.15;;;;;;;6.70;71.55;100606.27;1740700;82;22074;-71
2022/05/02 01:36:17;;;;;;;15.88;7.87;;;;;;;6.70;71.45;100607.58;1740669;82;21024;-70
2022/05/02 01:38:44;;;;;;;12.82;6.53;;;;;;;6.73;71.32;100607.08;1740695;82;21072;-70
2022/05/02 01:41:11;;;;;;;14.70;5.55;;;;;;;6.74;71.10;100605.34;1740712;82;21165;-71
2022/05/02 01:43:42;;;;;;;13.58;7.08;;;;;;;6.76;70.82;100606.16;1740683;82;21033;-69
2022/05/02 01:46:09;;;;;;;11.10;6.87;;;;;;;6.78;70.79;100602.23;1740689;82;21033;-71
2022/05/02 01:48:36;;;;;;;12.82;7.28;;;;;;;6.78;70.62;100600.47;1740423;82;21104;-68
2022/05/02 01:51:03;;;;;;;15.13;8.00;;;;;;;6.78;70.49;100600.47;1740376;82;21029;-70
2022/05/02 01:53:30;;;;;;;14.33;6.97;;;;;;;6.79;70.87;100600.91;1740546;82;21166;-71
2022/05/02 01:55:56;;;;;;;14.55;7.55;;;;;;;6.80;70.99;100605.24;1740505;82;21049;-70
2022/05/02 01:58:24;;;;;;;14.35;7.55;;;;;;;6.80;70.92;100601.31;1740422;82;21037;-71
2022/05/02 02:00:50;;;;;;;14.45;7.92;;;;;;;6.79;70.75;100599.59;1740529;82;22092;-70
2022/05/02 02:03:17;;;;;;;16.95;8.13;;;;;;;6.78;70.38;100600.47;1740436;82;21095;-70
2022/05/02 02:05:49;;;;;;;15.45;7.35;;;;;;;6.77;69.78;100606.61;1740819;82;21230;-71
2022/05/02 02:08:24;;;;;;;14.93;7.22;;;;;;;6.78;69.42;100600.47;1740693;82;21037;-71
2022/05/02 02:10:53;;;;;;;14.43;7.97;;;;;;;6.79;68.94;100604.84;1746724;81;21498;-70
2022/05/02 02:13:20;;;;;;;15.98;8.70;;;;;;;6.79;68.79;100599.59;1771151;80;21013;-71
2022/05/02 02:15:47;;;;;;;11.25;6.95;;;;;;;6.79;69.43;100597.43;1771230;81;21049;-70
2022/05/02 02:18:13;;;;;;;11.28;6.05;;;;;;;6.78;69.40;100600.47;1771036;80;21229;-70
2022/05/02 02:20:44;;;;;;;14.87;7.92;;;;;;;6.78;69.41;100596.54;1771004;80;21065;-72
2022/05/02 02:23:11;;;;;;;13.13;7.70;;;;;;;6.77;69.47;100598.75;1771494;80;21382;-70
2022/05/02 02:25:38;;;;;;;11.60;5.78;;;;;;;6.76;69.59;100597.00;1749539;81;21053;-71
2022/05/02 02:28:05;;;;;;;10.43;6.10;;;;;;;6.75;70.04;100600.52;1771394;80;21064;-70
2022/05/02 02:30:32;;;;;;;14.28;7.03;;;;;;;6.74;70.45;100598.80;1771519;81;21216;-70
2022/05/02 02:33:00;;;;;;;14.50;6.75;;;;;;;6.75;70.74;100601.83;1743436;81;21065;-71
2022/05/02 02:35:27;;;;;;;15.18;7.15;;;;;;;6.76;70.74;100602.23;1740424;82;21035;-71
2022/05/02 02:37:53;;;;;;;12.50;6.80;;;;;;;6.77;70.77;100602.68;1740709;82;21550;-69
2022/05/02 02:40:20;;;;;;;13.68;7.45;;;;;;;6.77;71.25;100606.61;1740664;82;21038;-70
2022/05/02 02:42:46;;;;;;;12.13;7.17;;;;;;;6.76;71.43;100599.62;1740582;82;21379;-71
2022/05/02 02:45:13;;;;;;;11.12;6.87;;;;;;;6.77;71.50;100600.06;1740579;82;21077;-71
2022/05/02 02:47:42;;;;;;;14.98;7.78;;;;;;;6.76;70.94;100599.62;1740539;82;21041;-70
2022/05/02 02:50:09;;;;;;;15.32;6.92;;;;;;;6.75;70.97;100597.91;1740712;82;21068;-71
2022/05/02 02:52:35;;;;;;;14.35;7.60;;;;;;;6.75;71.27;100596.59;1741047;82;21528;-70
2022/05/02 02:55:05;;;;;;;19.55;9.00;;;;;;;6.75;71.51;100596.59;1740667;82;21012;-71
2022/05/02 02:57:34;;;;;;;18.15;7.78;;;;;;;6.77;71.56;100596.13;1740915;82;21084;-70
2022/05/02 03:00:01;;;;;;;17.60;7.53;;;;;;;6.78;71.37;100599.16;1719910;82;21068;-69
2022/05/02 03:02:28;;;;;;;13.10;6.42;;;;;;;6.80;71.58;100601.31;1740550;82;21021;-71
2022/05/02 03:07:39;;;;;;;12.25;6.35;;;;;;;6.87;71.54;100605.58;1740733;82;21238;-70
2022/05/02 03:10:08;;;;;;;13.10;7.00;;;;;;;6.89;71.27;100601.19;1740549;82;21529;-70
2022/05/02 03:12:35;;;;;;;10.45;6.25;;;;;;;6.96;71.06;100612.89;1740373;82;21041;-69
2022/05/02 03:15:01;;;;;;;12.70;6.87;;;;;;;7.00;70.90;100610.20;1740821;82;21206;-71
2022/05/02 03:17:30;;;;;;;13.48;6.85;;;;;;;7.04;71.47;100614.94;1740661;82;21566;-71
2022/05/02 03:19:57;;;;;;;14.98;6.55;;;;;;;7.08;71.84;100614.01;1740415;82;21655;-70
2022/05/02 03:22:23;;;;;;;12.15;6.70;;;;;;;7.13;71.37;100606.94;1740523;81;21025;-70
2022/05/02 03:24:50;;;;;;;15.95;7.87;;;;;;;7.16;70.93;100609.53;1740701;82;21124;-70
2022/05/02 03:27:17;;;;;;;11.85;7.12;;;;;;;7.23;71.14;100615.09;1740515;82;21021;-70
2022/05/02 03:29:45;;;;;;;10.85;6.60;;;;;;;7.29;70.70;100613.70;1740777;82;21577;-71
2022/05/02 03:32:11;;;;;;;12.95;6.72;;;;;;;7.33;71.17;100615.36;1735493;82;21132;-72
2022/05/02 03:34:38;;;;;;;13.48;6.78;;;;;;;7.38;70.49;100617.05;1731819;82;21050;-72
2022/05/02 03:37:05;;;;;;;11.45;5.97;;;;;;;7.42;70.52;100613.04;1731779;82;21058;-71
2022/05/02 03:39:32;;;;;;;15.90;6.80;;;;;;;7.46;70.33;100615.18;1732066;82;21526;-71
2022/05/02 03:41:59;;;;;;;15.15;6.15;;;;;;;7.48;70.26;100613.41;1732118;82;21073;-72
2022/05/02 03:44:25;;;;;;;19.85;7.12;;;;;;;7.51;70.40;100612.03;1731780;82;21244;-71
2022/05/02 03:46:52;;;;;;;11.48;6.30;;;;;;;7.54;70.66;100608.03;1731667;82;21084;-70
2022/05/02 03:49:18;;;;;;;16.05;7.25;;;;;;;7.60;70.90;100614.95;1731634;82;21089;-71
2022/05/02 03:51:45;;;;;;;12.45;6.80;;;;;;;7.65;70.96;100623.59;1731629;82;21062;-70
2022/05/02 03:54:12;;;;;;;16.07;7.35;;;;;;;7.71;70.65;100615.17;1731769;82;21073;-71
2022/05/02 03:56:39;;;;;;;15.55;7.12;;;;;;;7.81;70.22;100612.39;1731617;82;21562;-72
2022/05/02 03:59:05;;;;;;;11.75;6.22;;;;;;;7.88;70.06;100614.87;1731926;82;21002;-71
2022/05/02 04:01:36;;;;;;;10.85;6.78;;;;;;;7.97;70.30;100613.84;1731940;82;21077;-71
2022/05/02 04:04:01;;;;;;;15.85;7.55;;;;;;;8.06;70.06;100616.29;1731606;82;21101;-71
2022/05/02 04:06:28;;;;;;;18.92;9.18;;;;;;;8.11;69.80;100610.50;1732072;82;21026;-71
2022/05/02 04:08:55;;;;;;;21.42;11.28;;;;;;;8.15;69.55;100617.42;1731892;82;21105;-71
2022/05/02 04:11:21;;;;;;;18.77;9.68;;;;;;;8.20;69.43;100618.20;1732048;82;21619;-70
2022/05/02 04:13:48;;;;;;;24.30;11.60;;;;;;;8.22;69.28;100616.01;1731808;82;21034;-74
2022/05/02 04:16:15;;;;;;;25.68;12.60;;;;;;;8.25;69.12;100617.25;1731947;82;21140;-71
2022/05/02 04:18:43;;;;;;;28.30;13.70;;;;;;;8.28;68.87;100619.80;1732016;82;21082;-71
2022/05/02 04:21:09;;;;;;;27.17;12.20;;;;;;;8.30;68.86;100623.27;1731790;82;21226;-71
2022/05/02 04:23:36;;;;;;;27.82;13.53;;;;;;;8.33;68.82;100623.22;1735963;82;21069;-72
2022/05/02 04:26:03;;;;;;;34.08;16.07;;;;;;;8.33;68.69;100623.22;1740097;82;21088;-70
2022/05/02 04:28:30;;;;;;;30.08;14.98;;;;;;;8.36;68.56;100625.32;1740201;82;21002;-71
2022/05/02 04:30:57;;;;;;;31.33;15.03;;;;;;;8.36;68.48;100620.53;1740124;82;21108;-71
2022/05/02 04:33:24;;;;;;;35.65;15.58;;;;;;;8.39;68.42;100619.14;1740047;82;22081;-72
2022/05/02 04:35:51;;;;;;;43.58;19.23;;;;;;;8.40;68.27;100620.92;1740274;82;21588;-71
2022/05/02 04:38:19;;;;;;;33.95;14.18;;;;;;;8.43;68.16;100626.55;1740223;82;21572;-71
2022/05/02 04:40:46;;;;;;;32.63;14.33;;;;;;;8.44;68.15;100621.25;1740189;82;21038;-72
2022/05/02 04:43:13;;;;;;;32.25;15.05;;;;;;;8.46;68.08;100622.09;1740559;82;21109;-73
2022/05/02 04:45:41;;;;;;;40.48;15.45;;;;;;;8.47;68.00;100614.65;1740382;82;21173;-71
2022/05/02 04:48:10;;;;;;;39.65;17.05;;;;;;;8.50;67.62;100617.66;1740424;82;21065;-72
2022/05/02 04:50:36;;;;;;;33.28;15.00;;;;;;;8.50;67.38;100619.83;1740527;81;21072;-71
2022/05/02 04:53:03;;;;;;;39.48;14.47;;;;;;;8.51;67.35;100616.32;1740589;81;21037;-71
2022/05/02 04:55:30;;;;;;;34.38;14.63;;;;;;;8.53;67.27;100614.95;1740422;82;21033;-71
2022/05/02 04:57:58;;;;;;;31.00;14.73;;;;;;;8.58;67.10;100613.09;1740349;82;22219;-71
2022/05/02 05:00:26;;;;;;;34.08;15.58;;;;;;;8.64;66.97;100612.97;1746460;80;21013;-71
2022/05/02 05:02:52;;;;;;;35.40;15.35;;;;;;;8.71;66.39;100615.02;1780099;80;21088;-70
2022/05/02 05:05:19;;;;;;;40.23;15.58;;;;;;;8.77;65.97;100614.44;1780055;80;21045;-72
2022/05/02 05:07:45;;;;;;;34.90;15.38;;;;;;;8.86;65.46;100613.38;1780218;80;21069;-70
2022/05/02 05:10:12;;;;;;;40.43;16.45;;;;;;;9.02;65.20;100617.39;1695957;80;21421;-71
2022/05/02 05:13:00;;;;;;;35.90;15.65;;;;;;;9.28;64.69;100617.22;1779841;80;21541;-71
2022/05/02 05:19:16;;;;;;;33.70;14.53;;;;;;;9.92;62.87;100609.94;1780241;80;21044;-74
2022/05/02 05:22:04;;;;;;;31.97;15.20;;;;;;;10.21;61.87;100606.03;1780084;80;21029;-71
2022/05/02 05:24:50;;;;;;;37.17;15.65;;;;;;;10.48;61.13;100607.52;1777493;80;21224;-71
2022/05/02 05:27:52;;;;;;;27.98;14.43;;;;;;;10.68;59.67;100615.70;1776714;80;21581;-71
2022/05/02 05:30:21;;;;;;;29.95;13.98;;;;;;;10.88;58.51;100611.59;1776984;80;21089;-70
2022/05/02 05:33:25;;;;;;;25.35;12.60;;;;;;;11.15;57.37;100609.02;1777128;80;21088;-70
2022/05/02 05:36:03;;;;;;;25.23;13.38;;;;;;;11.38;55.80;100606.49;1777292;80;21061;-71
2022/05/02 05:38:58;;;;;;;20.65;11.08;;;;;;;11.69;53.51;100602.85;1777564;80;21227;-71
2022/05/02 05:42:08;;;;;;;16.48;8.40;;;;;;;12.12;51.91;100605.33;1777081;80;21025;-71
2022/05/02 05:44:50;;;;;;;18.12;9.85;;;;;;;12.74;49.43;100598.16;1777133;80;21056;-69
2022/05/02 05:47:31;;;;;;;14.70;7.65;;;;;;;13.21;46.61;100603.37;1776977;80;21013;-71
2022/05/02 05:50:06;;;;;;;15.75;7.60;;;;;;;13.41;44.17;100596.42;1777297;80;21502;-72
2022/05/02 05:53:11;;;;;;;17.23;7.62;;;;;;;13.56;44.37;100598.44;1754129;80;21162;-71
2022/05/02 05:55:52;;;;;;;22.22;8.00;;;;;;;13.74;43.08;100598.61;1776512;80;21580;-73
2022/05/02 05:58:34;;;;;;;;;;;;;;;13.85;43.97;100589.74;1779719;80;20994;-72
2022/05/02 06:01:11;;;;;;;19.05;8.68;;;;;;;13.95;42.61;100591.05;1717714;80;20205;-72
2022/05/02 06:03:46;;;;;;;18.30;8.18;;;;;;;13.98;43.05;100594.88;1776971;80;21581;-73
2022/05/02 06:06:15;;;;;;;20.00;8.13;;;;;;;14.08;42.64;100595.80;1776255;80;21535;-72
2022/05/02 06:08:44;;;;;;;18.52;7.97;;;;;;;14.22;42.82;100597.39;1777046;80;20998;-71
2022/05/02 06:11:11;;;;;;;18.52;8.08;;;;;;;14.42;41.65;100594.70;1777206;80;21069;-72
2022/05/02 06:13:38;;;;;;;17.55;7.17;;;;;;;14.64;42.18;100593.74;1776995;80;21009;-73
2022/05/02 06:18:50;;;;;;;14.05;6.72;;;;;;;15.05;41.55;100594.91;1753180;80;21791;-73
2022/05/02 06:21:18;;;;;;;13.38;6.33;;;;;;;15.18;41.63;100586.72;1776770;80;21589;-71
2022/05/02 06:23:47;;;;;;;14.68;6.58;;;;;;;15.27;41.29;100586.27;1723564;80;21068;-71
2022/05/02 06:26:14;;;;;;;17.30;7.22;;;;;;;15.38;41.31;100591.53;1773876;80;21061;-71
2022/05/02 06:28:43;;;;;;;19.30;7.05;;;;;;;15.46;41.04;100594.64;1774525;80;21065;-71
2022/05/02 06:31:30;;;;;;;13.65;6.37;;;;;;;15.56;40.84;100586.63;1769594;80;21889;-73
2022/05/02 06:33:56;;;;;;;21.57;6.97;;;;;;;15.60;40.42;100586.88;1742386;82;20994;-72
2022/05/02 06:37:09;;;;;;;17.05;7.53;;;;;;;15.57;40.28;100593.64;1743749;82;21116;-71
2022/05/02 06:39:53;;;;;;;13.40;6.22;;;;;;;15.55;40.49;100588.02;1743856;82;21059;-72
2022/05/02 06:42:30;;;;;;;11.28;5.42;;;;;;;15.52;39.37;100586.38;1743384;82;21181;-72
2022/05/02 06:45:23;;;;;;;13.53;6.28;;;;;;;15.59;39.80;100583.81;1743425;82;21144;-71
2022/05/02 06:48:18;;;;;;;12.53;5.62;;;;;;;15.70;39.21;100581.50;1743545;82;21632;-72
2022/05/02 06:50:47;;;;;;;18.67;5.95;;;;;;;15.84;38.43;100577.28;1743644;82;21044;-71
2022/05/02 06:53:34;;;;;;;14.65;5.60;;;;;;;15.93;38.53;100582.12;1743285;82;21041;-70
2022/05/02 06:56:40;;;;;;;12.30;4.72;;;;;;;16.00;38.52;100571.56;1743414;82;21056;-72
2022/05/02 06:59:32;;;;;;;10.98;4.78;;;;;;;16.11;38.50;100578.50;1743474;82;21132;-74
2022/05/02 07:02:15;;;;;;;14.15;4.17;;;;;;;16.17;37.22;100576.45;1743365;82;21029;-71
2022/05/02 07:04:53;;;;;;;13.90;4.05;;;;;;;16.25;37.14;100571.59;1743421;82;21171;-72
2022/05/02 07:07:58;;;;;;;12.75;4.70;;;;;;;16.32;35.41;100572.50;1743527;82;21052;-72
2022/05/02 07:10:32;;;;;;;16.05;4.37;;;;;;;16.51;35.60;100568.84;1743450;82;21148;-72
2022/05/02 07:13:29;;;;;;;11.22;3.80;;;;;;;17.05;34.99;100567.23;1743541;82;21225;-72
2022/05/02 07:16:22;;;;;;;13.32;4.17;;;;;;;17.68;34.14;100565.73;1743513;82;21080;-72
2022/05/02 07:19:02;;;;;;;13.15;4.08;;;;;;;18.53;33.34;100560.10;1743357;82;21056;-72
2022/05/02 07:21:46;;;;;;;10.95;3.85;;;;;;;19.45;31.93;100556.79;1743520;82;20965;-72
2022/05/02 07:24:47;;;;;;;12.63;3.00;;;;;;;20.15;29.72;100555.59;1740900;81;21529;-73
2022/05/02 07:27:37;;;;;;;13.93;3.23;;;;;;;20.41;27.25;100558.27;1740614;82;21134;-71
2022/05/02 07:30:06;;;;;;;9.35;2.70;;;;;;;20.48;27.38;100551.51;1740361;82;21041;-71
2022/05/02 07:32:33;;;;;;;7.70;2.72;;;;;;;21.09;26.05;100551.05;1734305;82;21113;-72
2022/05/02 07:35:00;;;;;;;12.33;3.33;;;;;;;21.57;25.06;100549.69;1731635;82;21057;-71
2022/05/02 07:37:26;;;;;;;11.90;3.25;;;;;;;21.65;24.85;100550.92;1731789;82;21046;-73
2022/05/02 07:39:53;;;;;;;8.53;2.90;;;;;;;21.44;25.07;100548.94;1731812;82;21866;-72
2022/05/02 07:42:20;;;;;;;7.85;3.10;;;;;;;21.41;24.63;100544.28;1731598;82;21109;-73
2022/05/02 07:44:49;;;;;;;9.10;3.60;;;;;;;21.69;24.65;100551.06;1731769;82;21018;-71
2022/05/02 07:47:17;;;;;;;10.18;2.75;;;;;;;21.84;24.99;100545.87;1731453;82;21116;-72
2022/05/02 07:49:51;;;;;;;6.20;2.70;;;;;;;22.11;24.21;100546.00;1712924;82;21031;-73
2022/05/02 07:52:21;;;;;;;6.50;2.90;;;;;;;22.45;23.22;100550.07;1731606;82;21101;-71
2022/05/02 07:54:48;;;;;;;;;;;;;;;22.60;24.14;100547.50;1734152;82;21617;-70
2022/05/02 07:57:16;;;;;;;5.35;2.00;;;;;;;22.92;23.86;100549.41;1731884;82;20213;-71
2022/05/02 07:59:43;;;;;;;4.47;2.40;;;;;;;23.31;22.12;100546.61;1731587;82;21525;-71
2022/05/02 08:02:09;;;;;;;4.95;1.85;;;;;;;23.48;21.45;100543.83;1731774;82;21120;-72
2022/05/02 08:04:38;;;;;;;3.83;1.90;;;;;;;23.54;20.73;100533.91;1731830;82;21050;-71
2022/05/02 08:07:13;;;;;;;3.30;1.62;;;;;;;23.51;20.11;100537.34;1731629;82;21672;-71
2022/05/02 08:09:55;;;;;;;5.92;1.90;;;;;;;23.39;20.72;100539.23;1731894;82;21074;-72
2022/05/02 08:12:28;;;;;;;4.25;1.80;;;;;;;23.34;20.25;100536.09;1731730;82;21066;-71
2022/05/02 08:15:03;;;;;;;3.33;1.70;;;;;;;23.43;20.88;100536.66;1731706;82;21093;-72
2022/05/02 08:17:44;;;;;;;2.95;2.00;;;;;;;23.90;20.77;100531.75;1731991;82;21146;-70
2022/05/02 08:20:46;;;;;;;2.72;1.60;;;;;;;24.23;20.00;100520.39;1731528;82;21573;-72
2022/05/02 08:29:54;;;;;;;4.42;2.10;;;;;;;24.05;20.23;100519.66;1740220;82;21297;-72
2022/05/02 08:32:45;;;;;;;5.20;2.27;;;;;;;24.48;20.46;100515.90;1765576;80;21205;-71
2022/05/02 08:35:18;;;;;;;4.08;2.00;;;;;;;24.54;19.83;100506.41;1779793;80;21052;-71
2022/05/02 08:39:09;;;;;;;4.97;1.60;;;;;;;24.93;19.79;100496.20;1795571;78;23622;-72
2022/05/02 08:42:00;;;;;;;5.60;2.30;;;;;;;25.16;19.07;100498.97;1789866;80;21013;-71
2022/05/02 08:45:07;;;;;;;5.58;1.77;;;;;;;24.84;19.42;100498.73;1767438;79;21478;-71
2022/05/02 08:48:07;;;;;;;4.75;1.90;;;;;;;24.38;19.36;100500.66;1789109;80;21017;-72
2022/05/02 08:50:47;;;;;;;3.02;1.92;;;;;;;24.07;19.65;100498.86;1764198;80;21072;-71
2022/05/02 08:54:07;;;;;;;4.95;1.62;;;;;;;23.37;20.17;100495.51;1771583;79;21044;-72
2022/05/02 08:57:25;;;;;;;3.22;1.87;;;;;;;22.96;20.79;100487.72;1783756;79;21103;-73
2022/05/02 09:00:30;;;;;;;4.72;2.00;;;;;;;22.90;20.83;100485.56;1759521;79;21266;-72
2022/05/02 09:03:22;;;;;;;4.25;2.20;;;;;;;22.75;21.52;100484.52;1741082;81;21588;-73
2022/05/02 09:06:20;;;;;;;5.85;2.25;;;;;;;22.71;21.54;100483.56;1732116;81;21651;-72
2022/05/02 09:08:56;;;;;;;4.03;2.30;;;;;;;22.78;21.38;100478.89;1759164;81;21095;-71
2022/05/02 09:12:06;;;;;;;2.58;1.65;;;;;;;22.73;21.53;100481.11;1740390;81;21700;-72
2022/05/02 09:15:07;;;;;;;3.80;1.70;;;;;;;22.58;21.19;100486.38;1738187;81;21175;-72
2022/05/02 09:17:54;;;;;;;5.08;2.08;;;;;;;22.50;21.47;100471.37;1743902;81;21742;-72
2022/05/02 09:20:52;;;;;;;4.33;2.60;;;;;;;22.73;21.08;100473.52;1753735;81;21048;-72
2022/05/02 09:23:34;;;;;;;3.50;2.47;;;;;;;22.87;21.49;100462.51;1760347;81;21028;-71
2022/05/02 09:26:37;;;;;;;3.20;1.87;;;;;;;23.35;21.35;100443.25;1751909;81;21571;-71
2022/05/02 09:29:25;;;;;;;6.90;3.05;;;;;;;23.84;20.42;100451.62;1715435;81;21157;-71
2022/05/02 09:32:17;;;;;;;5.10;2.10;;;;;;;23.39;20.73;100445.17;1783343;79;21011;-71
2022/05/02 09:34:49;;;;;;;5.08;1.98;;;;;;;23.27;20.62;100447.58;1794520;79;21085;-71
2022/05/02 09:37:30;;;;;;;3.45;2.33;;;;;;;23.04;21.23;100455.25;1802667;79;21029;-70
2022/05/02 09:40:00;;;;;;;;;;;;;;;22.57;21.36;100437.72;1804444;79;21008;-71
2022/05/02 09:42:54;;;;;;;4.03;1.72;;;;;;;22.28;21.57;100433.39;1801508;79;21805;-72
2022/05/02 09:52:03;;;;;;;10.30;2.10;;;;;;;21.62;22.85;100418.52;1703317;82;21058;-71
2022/05/02 09:57:51;;;;;;;6.35;2.12;;;;;;;20.69;23.47;100420.19;1727848;82;21280;-73
2022/05/02 10:03:25;;;;;;;2.52;2.05;;;;;;;21.13;23.58;100417.30;1728735;82;21037;-72
2022/05/02 10:06:03;;;;;;;4.55;2.37;;;;;;;21.88;23.19;100409.27;1728266;82;21084;-71
2022/05/02 10:08:52;;;;;;;4.67;2.40;;;;;;;22.39;22.46;100411.41;1724174;81;21022;-72
2022/05/02 10:11:45;;;;;;;3.80;2.10;;;;;;;22.30;22.08;100408.14;1754294;80;21129;-71
2022/05/02 10:14:43;;;;;;;6.72;2.10;;;;;;;22.10;22.29;100403.50;1721811;81;21065;-71
2022/05/02 10:17:17;;;;;;;5.22;2.15;;;;;;;22.09;22.39;100409.86;1725068;81;21171;-73
2022/05/02 10:20:13;;;;;;;5.90;2.25;;;;;;;21.94;22.86;100410.59;1731344;82;21045;-72
2022/05/02 10:23:04;;;;;;;5.15;1.90;;;;;;;21.60;23.02;100399.02;1727616;82;21057;-71
2022/05/02 10:26:02;;;;;;;3.22;1.80;;;;;;;21.25;23.05;100396.75;1727353;82;21320;-71
2022/05/02 10:29:11;;;;;;;4.12;2.37;;;;;;;21.09;23.62;100410.47;1708035;81;21021;-72
2022/05/02 10:31:38;;;;;;;5.58;2.05;;;;;;;21.19;23.45;100404.40;1659028;85;21096;-70
2022/05/02 10:34:04;;;;;;;6.87;1.90;;;;;;;20.84;23.54;100394.08;1638378;85;21188;-73
2022/05/02 10:36:39;;;;;;;4.20;2.20;;;;;;;20.60;23.74;100388.77;1673867;84;21119;-73
2022/05/02 10:39:21;;;;;;;3.65;1.82;;;;;;;20.52;24.11;100396.46;1693555;84;21759;-72
2022/05/02 10:41:55;;;;;;;4.83;2.00;;;;;;;20.49;24.05;100390.86;1679551;84;21111;-71
2022/05/02 10:44:21;;;;;;;8.98;1.80;;;;;;;20.52;24.11;100382.63;1671736;84;21076;-73
2022/05/02 10:46:48;;;;;;;4.85;2.65;;;;;;;20.74;24.04;100381.88;1700437;84;21028;-73
2022/05/02 10:49:42;;;;;;;3.02;1.90;;;;;;;20.84;23.26;100378.51;1699297;84;21048;-71
2022/05/02 10:52:30;;;;;;;3.75;2.10;;;;;;;20.82;23.40;100375.09;1685772;84;21180;-73
2022/05/02 10:55:05;;;;;;;3.37;2.22;;;;;;;20.63;24.08;100365.78;1652618;84;21115;-71
2022/05/02 10:57:42;;;;;;;6.12;2.17;;;;;;;20.47;23.83;100366.04;1700674;83;21075;-71
2022/05/02 11:00:12;;;;;;;3.87;2.12;;;;;;;20.31;24.17;100367.69;1681658;84;21036;-73
2022/05/02 11:03:04;;;;;;;4.75;2.22;;;;;;;20.26;24.38;100367.16;1686064;84;21187;-73
2022/05/02 11:05:36;;;;;;;5.85;2.20;;;;;;;20.20;24.17;100366.29;1692124;84;21134;-71
2022/05/02 11:08:10;;;;;;;6.83;2.10;;;;;;;19.99;24.73;100360.70;1687557;84;21058;-72
2022/05/02 11:10:47;;;;;;;4.25;1.67;;;;;;;19.79;24.90;100355.45;1701003;84;21612;-72
2022/05/02 11:13:39;;;;;;;2.95;1.87;;;;;;;19.72;25.09;100350.66;1702530;84;21556;-73
2022/05/02 11:16:29;;;;;;;3.62;2.17;;;;;;;19.75;25.26;100345.09;1693759;83;21060;-72
2022/05/02 11:22:20;;;;;;;4.80;2.50;;;;;;;19.96;24.26;100346.20;1711528;82;21037;-74
2022/05/02 11:25:14;;;;;;;3.85;2.10;;;;;;;19.73;24.80;100346.53;1689294;84;21031;-72
2022/05/02 11:27:59;;;;;;;4.45;2.10;;;;;;;19.55;25.00;100349.98;1699793;84;21118;-73
2022/05/02 11:30:29;;;;;;;3.12;2.08;;;;;;;19.46;24.64;100334.16;1725858;82;21033;-72
2022/05/02 11:33:08;;;;;;;8.53;2.60;;;;;;;19.47;25.03;100334.52;1701407;83;21806;-72
2022/05/02 11:35:36;;;;;;;9.00;2.40;;;;;;;19.58;24.78;100339.11;1693928;83;21064;-72
2022/05/02 11:38:36;;;;;;;7.47;2.25;;;;;;;19.71;24.86;100332.42;1680192;83;21050;-74
2022/05/02 11:41:18;;;;;;;4.47;2.25;;;;;;;19.81;24.79;100320.12;1689298;84;21071;-72
2022/05/02 11:43:46;;;;;;;7.60;2.52;;;;;;;19.68;24.75;100314.80;1684103;83;21669;-73
2022/05/02 11:46:24;;;;;;;6.05;2.80;;;;;;;19.60;25.27;100320.28;1743625;81;21108;-72
2022/05/02 11:49:15;;;;;;;7.42;2.42;;;;;;;19.58;25.12;100304.84;1715959;83;21067;-72
2022/05/02 11:51:51;;;;;;;4.80;2.05;;;;;;;19.68;25.91;100305.91;1741243;81;21057;-74
2022/05/02 11:54:35;;;;;;;5.35;2.40;;;;;;;19.68;24.48;100305.91;1720465;82;21175;-70
2022/05/02 11:57:37;;;;;;;10.63;2.50;;;;;;;19.59;24.65;100304.73;1746686;81;22470;-72
2022/05/02 12:00:16;;;;;;;4.97;2.65;;;;;;;19.43;24.50;100296.97;1739978;81;21095;-71
2022/05/02 12:02:58;;;;;;;9.03;2.47;;;;;;;19.26;24.94;100289.32;1747089;81;21610;-71
2022/05/02 12:05:45;;;;;;;6.08;2.95;;;;;;;19.34;25.04;100293.62;1753632;81;21072;-72
2022/05/02 12:08:35;;;;;;;2.22;1.85;;;;;;;19.46;24.54;100274.06;1730269;81;21107;-72
2022/05/02 12:11:09;;;;;;;3.90;2.10;;;;;;;19.73;24.34;100284.22;1730716;81;21039;-72
2022/05/02 12:13:38;;;;;;;4.03;2.50;;;;;;;19.94;24.77;100277.78;1747225;81;21667;-72
2022/05/02 12:16:10;;;;;;;3.77;2.10;;;;;;;19.96;24.08;100264.67;1756561;81;21499;-72
2022/05/02 12:18:55;;;;;;;5.67;2.30;;;;;;;19.86;23.81;100269.86;1755267;81;21060;-73
2022/05/02 12:21:45;;;;;;;3.20;2.27;;;;;;;19.81;24.30;100268.50;1738920;81;21639;-73
2022/05/02 12:24:10;;;;;;;3.80;1.98;;;;;;;19.94;24.83;100261.26;1755995;81;21002;-72
2022/05/02 12:26:47;;;;;;;3.37;2.10;;;;;;;20.36;24.06;100263.50;1712382;81;21044;-71
2022/05/02 12:29:17;;;;;;;4.58;2.20;;;;;;;20.84;23.32;100260.73;1757705;81;21052;-72
2022/05/02 12:31:44;;;;;;;5.42;2.10;;;;;;;21.23;22.75;100253.22;1748583;81;21143;-72
2022/05/02 12:34:12;;;;;;;5.33;2.02;;;;;;;21.42;22.99;100254.84;1720753;81;21119;-73
2022/05/02 12:36:52;;;;;;;6.17;1.95;;;;;;;21.47;22.50;100255.31;1737827;81;22274;-72
2022/05/02 12:39:31;;;;;;;7.35;2.50;;;;;;;21.19;22.48;100259.78;1752087;81;22281;-72